sensor_id;sensor_type;location;lat;lon;timestamp;pressure;altitude;pressure_sealevel;temperature;humidity
80712;BME280;70078;51.596;5.678;2024-01-25T00:01:26;102674.16;;;8.00;83.92
80712;BME280;70078;51.596;5.678;2024-01-25T00:03:51;102679.69;;;7.97;83.84
80712;BME280;70078;51.596;5.678;2024-01-25T00:06:16;102687.44;;;7.87;84.04
80712;BME280;70078;51.596;5.678;2024-01-25T00:08:42;102681.78;;;7.79;84.31
80712;BME280;70078;51.596;5.678;2024-01-25T00:11:07;102677.72;;;7.73;84.38
80712;BME280;70078;51.596;5.678;2024-01-25T00:13:34;102672.38;;;7.61;83.83
80712;BME280;70078;51.596;5.678;2024-01-25T00:15:59;102713.34;;;7.71;84.29
80712;BME280;70078;51.596;5.678;2024-01-25T00:18:25;102705.47;;;7.69;83.97
80712;BME280;70078;51.596;5.678;2024-01-25T00:20:50;102671.91;;;7.54;84.30
80712;BME280;70078;51.596;5.678;2024-01-25T00:23:15;102677.06;;;7.57;83.89
80712;BME280;70078;51.596;5.678;2024-01-25T00:25:41;102690.06;;;7.47;83.85
80712;BME280;70078;51.596;5.678;2024-01-25T00:28:06;102695.16;;;7.38;84.13
80712;BME280;70078;51.596;5.678;2024-01-25T00:30:31;102699.63;;;7.37;84.30
80712;BME280;70078;51.596;5.678;2024-01-25T00:32:57;102711.75;;;7.41;84.61
80712;BME280;70078;51.596;5.678;2024-01-25T00:35:23;102692.81;;;7.33;84.44
80712;BME280;70078;51.596;5.678;2024-01-25T00:37:49;102700.59;;;7.22;84.55
80712;BME280;70078;51.596;5.678;2024-01-25T00:40:15;102696.53;;;7.16;84.75
80712;BME280;70078;51.596;5.678;2024-01-25T00:42:45;102696.53;;;7.16;84.77
80712;BME280;70078;51.596;5.678;2024-01-25T00:45:18;102717.13;;;7.13;84.65
80712;BME280;70078;51.596;5.678;2024-01-25T00:47:43;102691.84;;;6.93;84.89
80712;BME280;70078;51.596;5.678;2024-01-25T00:50:09;102688.06;;;6.97;84.79
80712;BME280;70078;51.596;5.678;2024-01-25T00:52:35;102686.72;;;6.90;84.91
80712;BME280;70078;51.596;5.678;2024-01-25T00:55:01;102710.16;;;6.98;84.83
80712;BME280;70078;51.596;5.678;2024-01-25T00:57:26;102693.38;;;6.83;85.00
80712;BME280;70078;51.596;5.678;2024-01-25T00:59:52;102707.41;;;6.85;84.90
80712;BME280;70078;51.596;5.678;2024-01-25T01:02:20;102709.31;;;6.83;84.99
80712;BME280;70078;51.596;5.678;2024-01-25T01:04:46;102713.94;;;6.79;85.26
80712;BME280;70078;51.596;5.678;2024-01-25T01:07:12;102687.13;;;6.55;85.19
80712;BME280;70078;51.596;5.678;2024-01-25T01:09:37;102711.97;;;6.68;85.55
80712;BME280;70078;51.596;5.678;2024-01-25T01:12:03;102695.28;;;6.52;85.67
80712;BME280;70078;51.596;5.678;2024-01-25T01:14:28;102722.47;;;6.70;85.74
80712;BME280;70078;51.596;5.678;2024-01-25T01:16:53;102718.38;;;6.64;85.31
80712;BME280;70078;51.596;5.678;2024-01-25T01:19:20;102695.94;;;6.42;85.19
80712;BME280;70078;51.596;5.678;2024-01-25T01:21:46;102713.28;;;6.47;85.37
80712;BME280;70078;51.596;5.678;2024-01-25T01:24:11;102700.84;;;6.33;85.51
80712;BME280;70078;51.596;5.678;2024-01-25T01:26:37;102697.72;;;6.27;85.82
80712;BME280;70078;51.596;5.678;2024-01-25T01:29:02;102718.41;;;6.36;85.85
80712;BME280;70078;51.596;5.678;2024-01-25T01:31:28;102716.88;;;6.32;85.99
80712;BME280;70078;51.596;5.678;2024-01-25T01:33:53;102733.06;;;6.27;86.03
80712;BME280;70078;51.596;5.678;2024-01-25T01:36:19;102703.78;;;6.15;86.06
80712;BME280;70078;51.596;5.678;2024-01-25T01:38:44;102739.22;;;6.28;86.28
80712;BME280;70078;51.596;5.678;2024-01-25T01:41:10;102749.06;;;6.26;86.59
80712;BME280;70078;51.596;5.678;2024-01-25T01:43:39;102738.16;;;6.16;86.35
80712;BME280;70078;51.596;5.678;2024-01-25T01:48:34;102753.50;;;6.25;86.63
80712;BME280;70078;51.596;5.678;2024-01-25T01:51:00;102754.66;;;6.21;86.49
80712;BME280;70078;51.596;5.678;2024-01-25T01:53:25;102759.66;;;6.26;86.34
80712;BME280;70078;51.596;5.678;2024-01-25T01:55:51;102760.91;;;6.20;86.38
80712;BME280;70078;51.596;5.678;2024-01-25T01:58:18;102761.16;;;6.16;86.31
80712;BME280;70078;51.596;5.678;2024-01-25T02:00:45;102765.09;;;6.08;86.16
80712;BME280;70078;51.596;5.678;2024-01-25T02:03:10;102733.75;;;5.85;86.54
80712;BME280;70078;51.596;5.678;2024-01-25T02:05:36;102742.81;;;5.81;86.29
80712;BME280;70078;51.596;5.678;2024-01-25T02:08:02;102775.91;;;5.90;87.02
80712;BME280;70078;51.596;5.678;2024-01-25T02:10:28;102759.25;;;5.72;86.32
80712;BME280;70078;51.596;5.678;2024-01-25T02:12:53;102785.81;;;5.86;87.11
80712;BME280;70078;51.596;5.678;2024-01-25T02:15:18;102796.22;;;5.89;87.12
80712;BME280;70078;51.596;5.678;2024-01-25T02:17:44;102779.44;;;5.74;87.46
80712;BME280;70078;51.596;5.678;2024-01-25T02:20:10;102755.59;;;5.58;87.22
80712;BME280;70078;51.596;5.678;2024-01-25T02:22:36;102783.09;;;5.72;87.52
80712;BME280;70078;51.596;5.678;2024-01-25T02:25:01;102765.31;;;5.58;87.38
80712;BME280;70078;51.596;5.678;2024-01-25T02:27:26;102792.00;;;5.71;87.33
80712;BME280;70078;51.596;5.678;2024-01-25T02:29:51;102784.91;;;5.71;87.08
80712;BME280;70078;51.596;5.678;2024-01-25T02:32:17;102783.63;;;5.63;87.27
80712;BME280;70078;51.596;5.678;2024-01-25T02:34:42;102804.16;;;5.75;86.99
80712;BME280;70078;51.596;5.678;2024-01-25T02:37:07;102777.16;;;5.52;87.55
80712;BME280;70078;51.596;5.678;2024-01-25T02:39:33;102806.00;;;5.57;87.35
80712;BME280;70078;51.596;5.678;2024-01-25T02:41:58;102786.72;;;5.39;87.47
80712;BME280;70078;51.596;5.678;2024-01-25T02:44:23;102796.78;;;5.48;87.86
80712;BME280;70078;51.596;5.678;2024-01-25T02:46:49;102799.34;;;5.50;88.03
80712;BME280;70078;51.596;5.678;2024-01-25T02:49:14;102763.72;;;5.24;88.12
80712;BME280;70078;51.596;5.678;2024-01-25T02:51:39;102792.34;;;5.33;88.23
80712;BME280;70078;51.596;5.678;2024-01-25T02:54:05;102781.56;;;5.20;88.43
80712;BME280;70078;51.596;5.678;2024-01-25T02:56:30;102785.66;;;5.26;88.65
80712;BME280;70078;51.596;5.678;2024-01-25T02:59:00;102789.44;;;5.22;88.71
80712;BME280;70078;51.596;5.678;2024-01-25T03:01:26;102787.47;;;5.25;89.10
80712;BME280;70078;51.596;5.678;2024-01-25T03:03:51;102784.81;;;5.25;89.96
80712;BME280;70078;51.596;5.678;2024-01-25T03:06:16;102756.75;;;5.06;90.11
80712;BME280;70078;51.596;5.678;2024-01-25T03:08:42;102787.13;;;5.16;90.18
80712;BME280;70078;51.596;5.678;2024-01-25T03:11:07;102800.16;;;5.19;90.30
80712;BME280;70078;51.596;5.678;2024-01-25T03:13:32;102802.59;;;5.23;90.21
80712;BME280;70078;51.596;5.678;2024-01-25T03:15:59;102788.50;;;5.23;90.06
80712;BME280;70078;51.596;5.678;2024-01-25T03:18:24;102798.47;;;5.18;90.26
80712;BME280;70078;51.596;5.678;2024-01-25T03:20:50;102784.03;;;5.08;90.23
80712;BME280;70078;51.596;5.678;2024-01-25T03:23:16;102772.63;;;4.90;89.96
80712;BME280;70078;51.596;5.678;2024-01-25T03:25:41;102757.34;;;4.79;89.84
80712;BME280;70078;51.596;5.678;2024-01-25T03:28:07;102773.03;;;4.82;89.78
80712;BME280;70078;51.596;5.678;2024-01-25T03:30:34;102812.22;;;5.09;89.89
80712;BME280;70078;51.596;5.678;2024-01-25T03:32:59;102758.59;;;4.72;89.74
80712;BME280;70078;51.596;5.678;2024-01-25T03:35:24;102803.19;;;4.95;89.92
80712;BME280;70078;51.596;5.678;2024-01-25T03:37:50;102763.53;;;4.62;89.83
80712;BME280;70078;51.596;5.678;2024-01-25T03:40:15;102764.91;;;4.69;89.87
80712;BME280;70078;51.596;5.678;2024-01-25T03:42:40;102809.72;;;5.06;90.18
80712;BME280;70078;51.596;5.678;2024-01-25T03:45:06;102789.03;;;4.96;90.00
80712;BME280;70078;51.596;5.678;2024-01-25T03:47:32;102763.56;;;4.78;89.78
80712;BME280;70078;51.596;5.678;2024-01-25T03:49:57;102791.84;;;4.93;89.92
80712;BME280;70078;51.596;5.678;2024-01-25T03:52:22;102803.03;;;4.98;90.22
80712;BME280;70078;51.596;5.678;2024-01-25T03:54:48;102803.72;;;5.02;89.70
80712;BME280;70078;51.596;5.678;2024-01-25T03:57:13;102767.47;;;4.71;89.31
80712;BME280;70078;51.596;5.678;2024-01-25T03:59:38;102798.72;;;4.80;88.77
80712;BME280;70078;51.596;5.678;2024-01-25T04:02:03;102758.00;;;4.50;88.83
80712;BME280;70078;51.596;5.678;2024-01-25T04:04:29;102812.97;;;4.78;88.85
80712;BME280;70078;51.596;5.678;2024-01-25T04:06:54;102818.34;;;4.76;88.79
80712;BME280;70078;51.596;5.678;2024-01-25T04:09:19;102819.44;;;4.72;88.85
80712;BME280;70078;51.596;5.678;2024-01-25T04:11:45;102822.25;;;4.69;88.98
80712;BME280;70078;51.596;5.678;2024-01-25T04:14:10;102830.34;;;4.66;89.17
80712;BME280;70078;51.596;5.678;2024-01-25T04:16:35;102805.44;;;4.53;88.96
80712;BME280;70078;51.596;5.678;2024-01-25T04:19:01;102793.63;;;4.42;88.66
80712;BME280;70078;51.596;5.678;2024-01-25T04:21:27;102815.03;;;4.55;89.77
80712;BME280;70078;51.596;5.678;2024-01-25T04:23:52;102813.22;;;4.56;89.66
80712;BME280;70078;51.596;5.678;2024-01-25T04:26:17;102788.44;;;4.41;89.69
80712;BME280;70078;51.596;5.678;2024-01-25T04:28:43;102799.00;;;4.41;89.59
80712;BME280;70078;51.596;5.678;2024-01-25T04:31:08;102790.84;;;4.28;90.03
80712;BME280;70078;51.596;5.678;2024-01-25T04:33:34;102809.66;;;4.39;90.07
80712;BME280;70078;51.596;5.678;2024-01-25T04:35:59;102800.41;;;4.31;90.32
80712;BME280;70078;51.596;5.678;2024-01-25T04:38:25;102804.69;;;4.33;90.53
80712;BME280;70078;51.596;5.678;2024-01-25T04:40:50;102788.03;;;4.14;90.39
80712;BME280;70078;51.596;5.678;2024-01-25T04:43:15;102812.16;;;4.25;90.82
80712;BME280;70078;51.596;5.678;2024-01-25T04:45:40;102798.13;;;4.06;90.91
80712;BME280;70078;51.596;5.678;2024-01-25T04:48:06;102790.50;;;4.00;91.00
80712;BME280;70078;51.596;5.678;2024-01-25T04:50:32;102798.13;;;4.06;91.26
80712;BME280;70078;51.596;5.678;2024-01-25T04:52:57;102792.22;;;4.01;91.42
80712;BME280;70078;51.596;5.678;2024-01-25T04:55:23;102803.03;;;4.13;91.70
80712;BME280;70078;51.596;5.678;2024-01-25T04:57:48;102791.97;;;4.05;91.78
80712;BME280;70078;51.596;5.678;2024-01-25T05:00:18;102802.91;;;4.16;92.01
80712;BME280;70078;51.596;5.678;2024-01-25T05:02:44;102806.53;;;4.14;91.87
80712;BME280;70078;51.596;5.678;2024-01-25T05:05:09;102808.69;;;4.23;92.06
80712;BME280;70078;51.596;5.678;2024-01-25T05:07:34;102796.13;;;4.11;92.10
80712;BME280;70078;51.596;5.678;2024-01-25T05:10:00;102785.22;;;4.00;92.01
80712;BME280;70078;51.596;5.678;2024-01-25T05:12:25;102806.59;;;4.12;91.77
80712;BME280;70078;51.596;5.678;2024-01-25T05:14:50;102780.00;;;3.98;91.79
80712;BME280;70078;51.596;5.678;2024-01-25T05:17:16;102788.00;;;3.97;91.85
80712;BME280;70078;51.596;5.678;2024-01-25T05:19:41;102804.13;;;4.09;92.46
80712;BME280;70078;51.596;5.678;2024-01-25T05:22:06;102777.06;;;3.87;91.82
80712;BME280;70078;51.596;5.678;2024-01-25T05:24:33;102765.00;;;3.81;92.01
80712;BME280;70078;51.596;5.678;2024-01-25T05:26:59;102794.06;;;3.99;92.11
80712;BME280;70078;51.596;5.678;2024-01-25T05:29:24;102742.75;;;3.68;92.29
80712;BME280;70078;51.596;5.678;2024-01-25T05:31:49;102800.44;;;3.95;92.36
80712;BME280;70078;51.596;5.678;2024-01-25T05:34:15;102785.09;;;3.84;92.66
80712;BME280;70078;51.596;5.678;2024-01-25T05:36:40;102773.47;;;3.71;92.76
80712;BME280;70078;51.596;5.678;2024-01-25T05:39:07;102790.56;;;3.81;92.73
80712;BME280;70078;51.596;5.678;2024-01-25T05:41:32;102796.25;;;3.90;92.62
80712;BME280;70078;51.596;5.678;2024-01-25T05:43:58;102796.69;;;3.81;92.63
80712;BME280;70078;51.596;5.678;2024-01-25T05:46:23;102805.56;;;3.98;92.79
80712;BME280;70078;51.596;5.678;2024-01-25T05:48:49;102797.09;;;3.91;92.80
80712;BME280;70078;51.596;5.678;2024-01-25T05:51:14;102795.75;;;3.82;92.87
80712;BME280;70078;51.596;5.678;2024-01-25T05:53:39;102800.19;;;3.82;92.72
80712;BME280;70078;51.596;5.678;2024-01-25T05:56:05;102831.31;;;3.94;92.36
80712;BME280;70078;51.596;5.678;2024-01-25T05:58:30;102830.75;;;3.87;92.24
80712;BME280;70078;51.596;5.678;2024-01-25T06:00:56;102816.97;;;3.81;92.29
80712;BME280;70078;51.596;5.678;2024-01-25T06:03:21;102820.31;;;3.84;92.06
80712;BME280;70078;51.596;5.678;2024-01-25T06:05:47;102818.34;;;3.71;92.08
80712;BME280;70078;51.596;5.678;2024-01-25T06:08:12;102806.41;;;3.62;92.25
80712;BME280;70078;51.596;5.678;2024-01-25T06:10:37;102827.91;;;3.73;92.09
80712;BME280;70078;51.596;5.678;2024-01-25T06:13:04;102824.25;;;3.76;92.19
80712;BME280;70078;51.596;5.678;2024-01-25T06:15:29;102823.28;;;3.78;92.29
80712;BME280;70078;51.596;5.678;2024-01-25T06:17:55;102830.09;;;3.82;91.87
80712;BME280;70078;51.596;5.678;2024-01-25T06:20:20;102823.41;;;3.75;91.77
80712;BME280;70078;51.596;5.678;2024-01-25T06:22:45;102832.81;;;3.81;91.74
80712;BME280;70078;51.596;5.678;2024-01-25T06:25:10;102848.38;;;3.87;91.46
80712;BME280;70078;51.596;5.678;2024-01-25T06:27:36;102839.97;;;3.79;91.31
80712;BME280;70078;51.596;5.678;2024-01-25T06:30:01;102816.94;;;3.64;91.14
80712;BME280;70078;51.596;5.678;2024-01-25T06:32:26;102831.47;;;3.72;91.11
80712;BME280;70078;51.596;5.678;2024-01-25T06:34:51;102834.25;;;3.69;91.01
80712;BME280;70078;51.596;5.678;2024-01-25T06:37:18;102831.69;;;3.68;90.61
80712;BME280;70078;51.596;5.678;2024-01-25T06:39:44;102849.31;;;3.67;90.44
80712;BME280;70078;51.596;5.678;2024-01-25T06:42:09;102854.03;;;3.60;90.50
80712;BME280;70078;51.596;5.678;2024-01-25T06:44:34;102848.66;;;3.62;90.24
80712;BME280;70078;51.596;5.678;2024-01-25T06:47:00;102857.41;;;3.64;90.45
80712;BME280;70078;51.596;5.678;2024-01-25T06:49:25;102857.41;;;3.64;90.35
80712;BME280;70078;51.596;5.678;2024-01-25T06:51:50;102858.13;;;3.49;90.64
80712;BME280;70078;51.596;5.678;2024-01-25T06:54:15;102869.03;;;3.41;90.59
80712;BME280;70078;51.596;5.678;2024-01-25T06:56:41;102864.72;;;3.39;90.96
80712;BME280;70078;51.596;5.678;2024-01-25T06:59:07;102843.31;;;3.26;90.93
80712;BME280;70078;51.596;5.678;2024-01-25T07:01:32;102839.94;;;3.22;90.93
80712;BME280;70078;51.596;5.678;2024-01-25T07:03:58;102827.88;;;3.17;90.92
80712;BME280;70078;51.596;5.678;2024-01-25T07:06:23;102857.97;;;3.33;91.20
80712;BME280;70078;51.596;5.678;2024-01-25T07:08:48;102860.03;;;3.26;91.57
80712;BME280;70078;51.596;5.678;2024-01-25T07:11:14;102858.31;;;3.25;91.34
80712;BME280;70078;51.596;5.678;2024-01-25T07:13:40;102855.00;;;3.20;91.19
80712;BME280;70078;51.596;5.678;2024-01-25T07:16:06;102848.81;;;3.21;91.52
80712;BME280;70078;51.596;5.678;2024-01-25T07:18:31;102852.09;;;3.26;91.41
80712;BME280;70078;51.596;5.678;2024-01-25T07:20:56;102826.25;;;3.14;91.93
80712;BME280;70078;51.596;5.678;2024-01-25T07:23:22;102811.63;;;3.07;92.22
80712;BME280;70078;51.596;5.678;2024-01-25T07:25:47;102822.97;;;3.09;92.21
80712;BME280;70078;51.596;5.678;2024-01-25T07:28:13;102838.41;;;3.18;92.37
80712;BME280;70078;51.596;5.678;2024-01-25T07:30:38;102845.31;;;3.21;92.74
80712;BME280;70078;51.596;5.678;2024-01-25T07:33:04;102843.53;;;3.21;92.57
80712;BME280;70078;51.596;5.678;2024-01-25T07:35:29;102847.94;;;3.21;92.94
80712;BME280;70078;51.596;5.678;2024-01-25T07:37:54;102826.09;;;2.98;92.82
80712;BME280;70078;51.596;5.678;2024-01-25T07:40:20;102851.44;;;3.21;93.34
80712;BME280;70078;51.596;5.678;2024-01-25T07:42:46;102856.56;;;3.24;93.51
80712;BME280;70078;51.596;5.678;2024-01-25T07:45:12;102842.81;;;3.18;93.52
80712;BME280;70078;51.596;5.678;2024-01-25T07:47:41;102866.00;;;3.30;93.38
80712;BME280;70078;51.596;5.678;2024-01-25T07:50:06;102884.91;;;3.40;93.53
80712;BME280;70078;51.596;5.678;2024-01-25T07:52:32;102875.00;;;3.45;93.51
80712;BME280;70078;51.596;5.678;2024-01-25T07:54:57;102876.59;;;3.49;93.28
80712;BME280;70078;51.596;5.678;2024-01-25T07:57:22;102878.94;;;3.55;93.14
80712;BME280;70078;51.596;5.678;2024-01-25T07:59:47;102878.94;;;3.55;93.03
80712;BME280;70078;51.596;5.678;2024-01-25T08:02:13;102841.13;;;3.36;93.25
80712;BME280;70078;51.596;5.678;2024-01-25T08:04:38;102825.44;;;3.32;92.81
80712;BME280;70078;51.596;5.678;2024-01-25T08:07:03;102854.97;;;3.59;92.92
80712;BME280;70078;51.596;5.678;2024-01-25T08:09:29;102838.81;;;3.47;92.55
80712;BME280;70078;51.596;5.678;2024-01-25T08:11:54;102852.47;;;3.56;92.73
80712;BME280;70078;51.596;5.678;2024-01-25T08:14:20;102875.53;;;3.72;92.91
80712;BME280;70078;51.596;5.678;2024-01-25T08:16:46;102844.59;;;3.55;92.75
80712;BME280;70078;51.596;5.678;2024-01-25T08:19:13;102860.53;;;3.72;92.82
80712;BME280;70078;51.596;5.678;2024-01-25T08:21:38;102882.50;;;3.92;92.99
80712;BME280;70078;51.596;5.678;2024-01-25T08:24:04;102863.50;;;3.83;92.88
80712;BME280;70078;51.596;5.678;2024-01-25T08:26:30;102821.91;;;3.70;92.92
80712;BME280;70078;51.596;5.678;2024-01-25T08:28:55;102828.31;;;3.83;93.11
80712;BME280;70078;51.596;5.678;2024-01-25T08:31:21;102845.66;;;3.88;93.21
80712;BME280;70078;51.596;5.678;2024-01-25T08:33:47;102882.72;;;4.23;93.62
80712;BME280;70078;51.596;5.678;2024-01-25T08:36:19;102893.16;;;4.26;93.70
80712;BME280;70078;51.596;5.678;2024-01-25T08:38:44;102877.75;;;4.17;93.89
80712;BME280;70078;51.596;5.678;2024-01-25T08:41:10;102825.38;;;3.89;93.94
80712;BME280;70078;51.596;5.678;2024-01-25T08:43:36;102896.75;;;4.42;94.32
80712;BME280;70078;51.596;5.678;2024-01-25T08:46:02;102800.31;;;4.15;94.43
80712;BME280;70078;51.596;5.678;2024-01-25T08:48:28;102855.84;;;4.67;94.54
80712;BME280;70078;51.596;5.678;2024-01-25T08:50:54;102793.94;;;4.36;94.44
80712;BME280;70078;51.596;5.678;2024-01-25T08:53:20;102838.66;;;4.58;94.46
80712;BME280;70078;51.596;5.678;2024-01-25T08:55:52;102851.41;;;4.67;94.42
80712;BME280;70078;51.596;5.678;2024-01-25T08:58:18;102823.34;;;4.48;94.15
80712;BME280;70078;51.596;5.678;2024-01-25T09:00:44;102860.53;;;4.79;93.91
80712;BME280;70078;51.596;5.678;2024-01-25T09:03:09;102837.97;;;4.72;93.55
80712;BME280;70078;51.596;5.678;2024-01-25T09:05:34;102892.56;;;5.08;93.81
80712;BME280;70078;51.596;5.678;2024-01-25T09:08:04;102855.47;;;4.92;93.81
80712;BME280;70078;51.596;5.678;2024-01-25T09:10:30;102916.03;;;5.31;93.61
80712;BME280;70078;51.596;5.678;2024-01-25T09:12:55;102924.56;;;5.36;93.99
80712;BME280;70078;51.596;5.678;2024-01-25T09:15:21;102895.28;;;5.39;93.99
80712;BME280;70078;51.596;5.678;2024-01-25T09:17:46;102908.31;;;5.60;93.56
80712;BME280;70078;51.596;5.678;2024-01-25T09:20:11;102892.50;;;5.58;93.68
80712;BME280;70078;51.596;5.678;2024-01-25T09:22:37;102895.84;;;5.62;93.12
80712;BME280;70078;51.596;5.678;2024-01-25T09:25:03;102894.72;;;5.66;93.21
80712;BME280;70078;51.596;5.678;2024-01-25T09:27:28;102887.56;;;5.68;93.02
80712;BME280;70078;51.596;5.678;2024-01-25T09:29:54;102910.22;;;5.89;93.03
80712;BME280;70078;51.596;5.678;2024-01-25T09:32:19;102879.13;;;5.93;93.06
80712;BME280;70078;51.596;5.678;2024-01-25T09:34:45;102892.88;;;6.15;92.67
80712;BME280;70078;51.596;5.678;2024-01-25T09:37:11;102880.56;;;6.14;93.21
80712;BME280;70078;51.596;5.678;2024-01-25T09:39:36;102876.94;;;6.31;93.10
80712;BME280;70078;51.596;5.678;2024-01-25T09:42:03;102887.31;;;6.65;92.27
80712;BME280;70078;51.596;5.678;2024-01-25T09:44:29;102872.41;;;6.63;91.82
80712;BME280;70078;51.596;5.678;2024-01-25T09:46:54;102861.72;;;6.79;91.57
80712;BME280;70078;51.596;5.678;2024-01-25T09:49:21;102874.53;;;6.86;90.82
80712;BME280;70078;51.596;5.678;2024-01-25T09:51:47;102891.66;;;6.97;91.06
80712;BME280;70078;51.596;5.678;2024-01-25T09:54:13;102894.78;;;7.17;90.54
80712;BME280;70078;51.596;5.678;2024-01-25T09:56:41;102878.19;;;7.14;90.16
80712;BME280;70078;51.596;5.678;2024-01-25T09:59:07;102891.59;;;7.41;90.34
80712;BME280;70078;51.596;5.678;2024-01-25T10:01:33;102859.13;;;7.36;89.63
80712;BME280;70078;51.596;5.678;2024-01-25T10:03:59;102870.28;;;7.55;89.51
80712;BME280;70078;51.596;5.678;2024-01-25T10:06:25;102864.47;;;7.63;89.28
80712;BME280;70078;51.596;5.678;2024-01-25T10:08:52;102876.53;;;7.83;89.45
80712;BME280;70078;51.596;5.678;2024-01-25T10:11:17;102859.34;;;8.01;89.00
80712;BME280;70078;51.596;5.678;2024-01-25T10:13:47;102852.69;;;8.08;88.36
80712;BME280;70078;51.596;5.678;2024-01-25T10:16:17;102869.44;;;8.23;87.83
80712;BME280;70078;51.596;5.678;2024-01-25T10:18:46;102874.63;;;8.39;86.82
80712;BME280;70078;51.596;5.678;2024-01-25T10:21:12;102854.78;;;8.30;86.37
80712;BME280;70078;51.596;5.678;2024-01-25T10:23:44;102861.88;;;8.44;86.26
80712;BME280;70078;51.596;5.678;2024-01-25T10:26:10;102873.66;;;8.54;86.26
80712;BME280;70078;51.596;5.678;2024-01-25T10:28:35;102867.44;;;8.53;85.51
80712;BME280;70078;51.596;5.678;2024-01-25T10:31:04;102833.38;;;8.19;86.20
80712;BME280;70078;51.596;5.678;2024-01-25T10:33:30;102845.78;;;8.32;85.04
80712;BME280;70078;51.596;5.678;2024-01-25T10:35:58;102840.44;;;8.32;85.35
80712;BME280;70078;51.596;5.678;2024-01-25T10:38:34;102857.63;;;8.41;84.81
80712;BME280;70078;51.596;5.678;2024-01-25T10:41:02;102867.53;;;8.52;84.71
80712;BME280;70078;51.596;5.678;2024-01-25T10:43:28;102851.91;;;8.47;84.83
80712;BME280;70078;51.596;5.678;2024-01-25T10:45:56;102849.25;;;8.47;85.29
80712;BME280;70078;51.596;5.678;2024-01-25T10:48:23;102860.97;;;8.57;85.38
80712;BME280;70078;51.596;5.678;2024-01-25T10:50:49;102832.84;;;8.53;84.91
80712;BME280;70078;51.596;5.678;2024-01-25T10:53:16;102825.19;;;8.49;84.74
80712;BME280;70078;51.596;5.678;2024-01-25T10:55:42;102838.53;;;8.61;85.32
80712;BME280;70078;51.596;5.678;2024-01-25T10:58:07;102831.91;;;8.67;84.88
80712;BME280;70078;51.596;5.678;2024-01-25T11:00:36;102823.81;;;8.56;84.84
80712;BME280;70078;51.596;5.678;2024-01-25T11:03:01;102823.81;;;8.56;84.33
80712;BME280;70078;51.596;5.678;2024-01-25T11:05:27;102835.53;;;8.66;84.76
80712;BME280;70078;51.596;5.678;2024-01-25T11:07:53;102830.59;;;8.60;84.41
80712;BME280;70078;51.596;5.678;2024-01-25T11:10:21;102816.16;;;8.64;84.32
80712;BME280;70078;51.596;5.678;2024-01-25T11:12:58;102834.88;;;8.75;84.42
80712;BME280;70078;51.596;5.678;2024-01-25T11:15:30;102778.22;;;8.48;84.42
80712;BME280;70078;51.596;5.678;2024-01-25T11:17:57;102815.09;;;8.79;84.46
80712;BME280;70078;51.596;5.678;2024-01-25T11:20:26;102792.19;;;8.64;84.74
80712;BME280;70078;51.596;5.678;2024-01-25T11:23:05;102813.38;;;8.78;84.87
80712;BME280;70078;51.596;5.678;2024-01-25T11:25:33;102796.03;;;8.85;84.69
80712;BME280;70078;51.596;5.678;2024-01-25T11:28:00;102798.03;;;8.95;84.50
80712;BME280;70078;51.596;5.678;2024-01-25T11:30:27;102753.09;;;8.77;84.11
80712;BME280;70078;51.596;5.678;2024-01-25T11:32:53;102773.63;;;9.01;83.51
80712;BME280;70078;51.596;5.678;2024-01-25T11:35:18;102766.81;;;8.84;84.14
80712;BME280;70078;51.596;5.678;2024-01-25T11:37:45;102776.31;;;9.01;84.25
80712;BME280;70078;51.596;5.678;2024-01-25T11:40:11;102756.81;;;8.87;84.36
80712;BME280;70078;51.596;5.678;2024-01-25T11:42:37;102782.59;;;9.00;84.00
80712;BME280;70078;51.596;5.678;2024-01-25T11:45:04;102749.91;;;8.85;83.73
80712;BME280;70078;51.596;5.678;2024-01-25T11:47:30;102733.69;;;8.75;83.67
80712;BME280;70078;51.596;5.678;2024-01-25T11:49:55;102722.63;;;8.69;83.78
80712;BME280;70078;51.596;5.678;2024-01-25T11:52:20;102735.75;;;8.72;83.54
80712;BME280;70078;51.596;5.678;2024-01-25T11:54:46;102752.88;;;8.80;83.30
80712;BME280;70078;51.596;5.678;2024-01-25T11:57:11;102731.69;;;8.66;83.69
80712;BME280;70078;51.596;5.678;2024-01-25T11:59:37;102780.78;;;9.00;83.66
80712;BME280;70078;51.596;5.678;2024-01-25T12:02:02;102737.97;;;8.65;83.60
80712;BME280;70078;51.596;5.678;2024-01-25T12:04:28;102737.13;;;8.65;83.82
80712;BME280;70078;51.596;5.678;2024-01-25T12:06:54;102755.66;;;8.66;83.72
80712;BME280;70078;51.596;5.678;2024-01-25T12:09:20;102782.72;;;8.85;83.90
80712;BME280;70078;51.596;5.678;2024-01-25T12:11:49;102765.03;;;8.59;84.84
80712;BME280;70078;51.596;5.678;2024-01-25T12:14:16;102725.00;;;8.48;85.00
80712;BME280;70078;51.596;5.678;2024-01-25T12:16:41;102736.47;;;8.61;84.92
80712;BME280;70078;51.596;5.678;2024-01-25T12:19:07;102721.16;;;8.52;85.46
80712;BME280;70078;51.596;5.678;2024-01-25T12:21:33;102754.25;;;8.73;84.94
80712;BME280;70078;51.596;5.678;2024-01-25T12:23:59;102743.94;;;8.69;85.09
80712;BME280;70078;51.596;5.678;2024-01-25T12:26:24;102733.72;;;8.63;85.34
80712;BME280;70078;51.596;5.678;2024-01-25T12:28:50;102681.50;;;8.22;85.52
80712;BME280;70078;51.596;5.678;2024-01-25T12:31:15;102694.03;;;8.47;85.99
80712;BME280;70078;51.596;5.678;2024-01-25T12:33:41;102673.03;;;8.42;85.90
80712;BME280;70078;51.596;5.678;2024-01-25T12:36:07;102659.63;;;8.44;85.68
80712;BME280;70078;51.596;5.678;2024-01-25T12:38:32;102691.75;;;8.66;85.89
80712;BME280;70078;51.596;5.678;2024-01-25T12:41:00;102693.50;;;8.54;85.90
80712;BME280;70078;51.596;5.678;2024-01-25T12:43:25;102669.41;;;8.43;84.88
80712;BME280;70078;51.596;5.678;2024-01-25T12:45:50;102697.72;;;8.57;84.38
80712;BME280;70078;51.596;5.678;2024-01-25T12:48:17;102679.22;;;8.43;84.66
80712;BME280;70078;51.596;5.678;2024-01-25T12:50:43;102707.00;;;8.64;84.58
80712;BME280;70078;51.596;5.678;2024-01-25T12:53:10;102667.47;;;8.32;85.24
80712;BME280;70078;51.596;5.678;2024-01-25T12:55:35;102687.31;;;8.41;85.14